createdAt,value
2019-02-16T00:01:18.742Z,920.23
2019-02-16T00:04:22.376Z,920.15
2019-02-16T00:05:54.193Z,920.06
2019-02-16T00:07:25.992Z,920.06
2019-02-16T00:08:57.857Z,920.11
2019-02-16T00:10:29.620Z,920.18
2019-02-16T00:12:01.529Z,920.21
2019-02-16T00:13:33.271Z,920.19
2019-02-16T00:15:05.060Z,920.26
2019-02-16T00:16:36.871Z,920.16
2019-02-16T00:18:08.679Z,920.21
2019-02-16T00:19:40.491Z,920.24
2019-02-16T00:21:12.320Z,920.24
2019-02-16T00:22:44.117Z,920.29
2019-02-16T00:24:15.929Z,920.29
2019-02-16T00:25:47.751Z,920.30
2019-02-16T00:27:19.556Z,920.35
2019-02-16T00:28:51.379Z,920.30
2019-02-16T00:30:23.342Z,920.39
2019-02-16T00:31:54.992Z,920.40
2019-02-16T00:33:26.805Z,920.42
2019-02-16T00:34:58.620Z,920.50
2019-02-16T00:36:30.430Z,920.50
2019-02-16T00:38:02.242Z,920.54
2019-02-16T00:39:34.055Z,920.59
2019-02-16T00:41:05.887Z,920.55
2019-02-16T00:42:37.680Z,920.46
2019-02-16T00:44:09.506Z,920.44
2019-02-16T00:45:41.306Z,920.47
2019-02-16T00:47:13.118Z,920.49
2019-02-16T00:48:45.031Z,920.51
2019-02-16T00:50:16.744Z,920.55
2019-02-16T00:51:48.556Z,920.53
2019-02-16T00:53:20.372Z,920.48
2019-02-16T00:54:52.182Z,920.51
2019-02-16T00:56:23.994Z,920.55
2019-02-16T00:57:55.806Z,920.57
2019-02-16T00:59:28.092Z,920.54
2019-02-16T01:00:59.432Z,920.51
2019-02-16T01:02:31.244Z,920.47
2019-02-16T01:04:03.056Z,920.53
2019-02-16T01:05:34.867Z,920.42
2019-02-16T01:07:06.781Z,920.48
2019-02-16T01:08:38.501Z,920.50
2019-02-16T01:10:10.305Z,920.58
2019-02-16T01:11:42.120Z,920.67
2019-02-16T01:13:13.932Z,920.69
2019-02-16T01:14:45.744Z,920.71
2019-02-16T01:16:17.556Z,920.77
2019-02-16T01:17:49.904Z,920.73
2019-02-16T01:19:21.180Z,920.74
2019-02-16T01:20:52.992Z,920.86
2019-02-16T01:22:24.805Z,920.89
2019-02-16T01:23:56.617Z,920.89
2019-02-16T01:25:28.536Z,920.93
2019-02-16T01:27:00.242Z,920.99
2019-02-16T01:28:32.055Z,920.99
2019-02-16T01:30:03.870Z,920.98
2019-02-16T01:31:35.779Z,920.95
2019-02-16T01:33:07.496Z,920.89
2019-02-16T01:34:39.304Z,920.83
2019-02-16T01:36:11.163Z,920.81
2019-02-16T01:37:42.929Z,920.77
2019-02-16T01:39:14.743Z,920.83
2019-02-16T01:40:46.555Z,920.89
2019-02-16T01:42:18.367Z,920.87
2019-02-16T01:43:50.585Z,920.86
2019-02-16T01:45:21.992Z,920.75
2019-02-16T01:46:53.805Z,920.71
2019-02-16T01:48:25.618Z,920.67
2019-02-16T01:49:57.429Z,920.68
2019-02-16T01:51:32.004Z,920.61
2019-02-16T01:53:01.099Z,920.62
2019-02-16T01:54:32.867Z,920.62
2019-02-16T01:56:04.680Z,920.59
2019-02-16T01:57:36.493Z,920.60
2019-02-16T01:59:08.307Z,920.62
2019-02-16T02:00:40.120Z,920.64
2019-02-16T02:02:12.182Z,920.64
2019-02-16T02:03:43.745Z,920.66
2019-02-16T02:05:15.557Z,920.60
2019-02-16T02:06:47.673Z,920.56
2019-02-16T02:08:19.282Z,920.42
2019-02-16T02:09:50.995Z,920.34
2019-02-16T02:11:22.808Z,920.30
2019-02-16T02:12:54.620Z,920.25
2019-02-16T02:14:26.434Z,920.16
2019-02-16T02:15:58.244Z,920.13
2019-02-16T02:17:30.057Z,920.13
2019-02-16T02:19:01.870Z,920.19
2019-02-16T02:20:33.782Z,920.22
2019-02-16T02:22:05.495Z,920.22
2019-02-16T02:23:37.308Z,920.33
2019-02-16T02:25:09.120Z,920.32
2019-02-16T02:26:40.932Z,920.27
2019-02-16T02:28:12.745Z,920.35
2019-02-16T02:29:44.562Z,920.33
2019-02-16T02:31:16.372Z,920.36
2019-02-16T02:32:48.284Z,920.33
2019-02-16T02:34:19.997Z,920.22
2019-02-16T02:35:51.810Z,920.08
2019-02-16T02:37:23.621Z,919.99
2019-02-16T02:38:55.689Z,919.95
2019-02-16T02:40:27.249Z,919.92
2019-02-16T02:41:59.064Z,919.91
2019-02-16T02:43:30.874Z,919.83
2019-02-16T02:45:02.688Z,919.81
2019-02-16T02:46:34.499Z,919.88
2019-02-16T02:48:06.310Z,919.86
2019-02-16T02:49:38.124Z,919.83
2019-02-16T02:51:09.938Z,919.81
2019-02-16T02:52:41.751Z,919.73
2019-02-16T02:54:13.563Z,919.75
2019-02-16T02:55:45.379Z,919.80
2019-02-16T02:57:17.341Z,919.78
2019-02-16T02:58:49.003Z,919.80
2019-02-16T03:00:20.816Z,919.74
2019-02-16T03:01:52.627Z,919.73
2019-02-16T03:03:24.541Z,919.63
2019-02-16T03:04:56.254Z,919.66
2019-02-16T03:06:28.066Z,919.69
2019-02-16T03:07:59.879Z,919.66
2019-02-16T03:09:31.792Z,919.60
2019-02-16T03:11:03.504Z,919.64
2019-02-16T03:12:35.316Z,919.55
2019-02-16T03:14:07.133Z,919.57
2019-02-16T03:15:39.095Z,919.58
2019-02-16T03:17:10.757Z,919.60
2019-02-16T03:18:42.568Z,919.65
2019-02-16T03:20:47.595Z,919.69
2019-02-16T03:22:02.148Z,919.81
2019-02-16T03:23:18.007Z,919.84
2019-02-16T03:24:49.825Z,919.86
2019-02-16T03:26:21.638Z,919.86
2019-02-16T03:27:53.452Z,919.84
2019-02-16T03:29:25.263Z,919.76
2019-02-16T03:30:57.077Z,919.75
2019-02-16T03:32:28.988Z,919.75
2019-02-16T03:34:00.699Z,919.73
2019-02-16T03:35:32.509Z,919.79
2019-02-16T03:37:04.329Z,919.85
2019-02-16T03:38:36.148Z,919.73
2019-02-16T03:40:07.964Z,919.71
2019-02-16T03:41:39.763Z,919.62
2019-02-16T03:43:11.575Z,919.56
2019-02-16T03:44:43.537Z,919.56
2019-02-16T03:46:15.200Z,919.53
2019-02-16T03:47:47.028Z,919.49
2019-02-16T03:49:18.826Z,919.44
2019-02-16T03:50:50.738Z,919.39
2019-02-16T03:52:22.456Z,919.34
2019-02-16T03:53:54.274Z,919.31
2019-02-16T03:55:26.080Z,919.38
2019-02-16T03:56:57.902Z,919.36
2019-02-16T03:58:29.705Z,919.34
2019-02-16T04:00:01.523Z,919.29
2019-02-16T04:01:33.329Z,919.31
2019-02-16T04:03:05.143Z,919.26
2019-02-16T04:04:36.955Z,919.20
2019-02-16T04:06:08.770Z,919.17
2019-02-16T04:07:40.582Z,919.11
2019-02-16T04:09:12.494Z,919.13
2019-02-16T04:10:44.208Z,919.10
2019-02-16T04:12:16.034Z,919.07
2019-02-16T04:15:19.646Z,919.11
2019-02-16T04:16:51.458Z,919.15
2019-02-16T04:18:23.271Z,919.20
2019-02-16T04:19:55.084Z,919.18
2019-02-16T04:21:26.909Z,919.24
2019-02-16T04:22:58.714Z,919.28
2019-02-16T04:24:30.524Z,919.32
2019-02-16T04:26:02.336Z,919.32
2019-02-16T04:27:34.247Z,919.31
2019-02-16T04:29:05.961Z,919.29
2019-02-16T04:30:37.772Z,919.20
2019-02-16T04:32:09.594Z,919.13
2019-02-16T04:33:41.399Z,919.11
2019-02-16T04:35:13.214Z,919.02
2019-02-16T04:36:45.027Z,919.02
2019-02-16T04:38:16.837Z,918.93
2019-02-16T04:41:20.467Z,918.91
2019-02-16T04:42:52.277Z,918.94
2019-02-16T04:44:24.091Z,918.99
2019-02-16T04:45:55.903Z,918.97
2019-02-16T04:47:27.816Z,918.91
2019-02-16T04:48:59.530Z,918.89
2019-02-16T04:50:31.344Z,918.85
2019-02-16T04:52:03.156Z,918.85
2019-02-16T04:53:34.967Z,918.87
2019-02-16T04:55:06.781Z,918.85
2019-02-16T04:56:38.595Z,918.87
2019-02-16T04:58:10.411Z,918.90
2019-02-16T04:59:42.233Z,919.01
2019-02-16T05:01:14.035Z,919.01
2019-02-16T05:02:45.857Z,919.04
2019-02-16T05:04:17.659Z,919.05
2019-02-16T05:05:50.175Z,919.05
2019-02-16T05:07:21.285Z,919.07
2019-02-16T05:08:53.098Z,919.07
2019-02-16T05:10:24.913Z,919.05
2019-02-16T05:11:56.925Z,919.08
2019-02-16T05:13:28.546Z,919.07
2019-02-16T05:15:00.352Z,919.00
2019-02-16T05:16:32.170Z,919.02
2019-02-16T05:18:03.980Z,919.10
2019-02-16T05:19:35.791Z,919.08
2019-02-16T05:21:07.604Z,919.04
2019-02-16T05:22:44.588Z,919.03
2019-02-16T05:24:11.333Z,918.98
2019-02-16T05:25:43.051Z,918.92
2019-02-16T05:27:14.869Z,918.90
2019-02-16T05:28:46.673Z,918.87
2019-02-16T05:30:18.485Z,918.82
2019-02-16T05:31:50.606Z,918.74
2019-02-16T05:33:22.128Z,918.68
2019-02-16T05:34:53.925Z,918.65
2019-02-16T05:36:25.739Z,918.59
2019-02-16T05:37:57.552Z,918.63
2019-02-16T05:39:29.365Z,918.68
2019-02-16T05:41:01.178Z,918.68
2019-02-16T05:42:33.094Z,918.70
2019-02-16T05:44:04.829Z,918.73
2019-02-16T05:45:36.619Z,918.71
2019-02-16T05:47:08.432Z,918.67
2019-02-16T05:48:40.246Z,918.73
2019-02-16T05:50:12.059Z,918.73
2019-02-16T05:51:43.873Z,918.80
2019-02-16T05:53:15.686Z,918.80
2019-02-16T05:54:47.751Z,918.80
2019-02-16T05:56:19.320Z,918.85
2019-02-16T05:57:51.126Z,918.76
2019-02-16T05:59:22.939Z,918.75
2019-02-16T06:00:54.852Z,918.72
2019-02-16T06:02:26.568Z,918.76
2019-02-16T06:03:58.378Z,918.78
2019-02-16T06:05:30.193Z,918.81
2019-02-16T06:07:02.110Z,918.80
2019-02-16T06:08:33.820Z,918.77
2019-02-16T06:10:05.633Z,918.75
2019-02-16T06:11:37.445Z,918.70
2019-02-16T06:13:09.310Z,918.66
2019-02-16T06:14:41.075Z,918.52
2019-02-16T06:16:12.885Z,918.47
2019-02-16T06:17:44.698Z,918.46
2019-02-16T06:19:16.865Z,918.51
2019-02-16T06:22:20.140Z,918.44
2019-02-16T06:23:51.952Z,918.41
2019-02-16T06:25:23.766Z,918.38
2019-02-16T06:26:55.579Z,918.44
2019-02-16T06:28:27.392Z,918.42
2019-02-16T06:29:59.209Z,918.41
2019-02-16T06:31:31.020Z,918.39
2019-02-16T06:33:02.837Z,918.29
2019-02-16T06:34:34.646Z,918.22
2019-02-16T06:36:06.459Z,918.12
2019-02-16T06:37:38.373Z,917.99
2019-02-16T06:39:10.086Z,917.86
2019-02-16T06:40:41.902Z,917.75
2019-02-16T06:42:13.712Z,917.81
2019-02-16T06:43:45.596Z,917.97
2019-02-16T06:45:17.339Z,918.06
2019-02-16T06:46:49.154Z,918.19
2019-02-16T06:48:20.965Z,918.15
2019-02-16T06:49:53.027Z,918.17
2019-02-16T06:51:24.590Z,918.25
2019-02-16T06:52:56.405Z,918.30
2019-02-16T06:54:28.217Z,918.41
2019-02-16T06:56:00.128Z,918.41
2019-02-16T06:57:31.842Z,918.47
2019-02-16T06:59:03.655Z,918.43
2019-02-16T07:00:35.468Z,918.52
2019-02-16T07:02:07.281Z,918.53
2019-02-16T07:03:39.096Z,918.58
2019-02-16T07:05:11.210Z,918.58
2019-02-16T07:06:42.813Z,918.56
2019-02-16T07:08:14.531Z,918.60
2019-02-16T07:09:46.343Z,918.54
2019-02-16T07:11:18.156Z,918.47
2019-02-16T07:12:50.274Z,918.38
2019-02-16T07:14:21.882Z,918.40
2019-02-16T07:15:53.593Z,918.43
2019-02-16T07:17:25.407Z,918.37
2019-02-16T07:18:57.223Z,918.47
2019-02-16T07:20:29.284Z,918.43
2019-02-16T07:22:00.851Z,918.43
2019-02-16T07:23:32.659Z,918.41
2019-02-16T07:25:04.472Z,918.38
2019-02-16T07:26:36.292Z,918.37
2019-02-16T07:28:08.097Z,918.34
2019-02-16T07:29:39.914Z,918.36
2019-02-16T07:31:11.723Z,918.39
2019-02-16T07:32:43.641Z,918.30
2019-02-16T07:34:15.349Z,918.32
2019-02-16T07:35:47.164Z,918.33
2019-02-16T07:37:18.974Z,918.32
2019-02-16T07:38:51.094Z,918.31
2019-02-16T07:40:22.600Z,918.32
2019-02-16T07:41:54.412Z,918.33
2019-02-16T07:43:26.226Z,918.28
2019-02-16T07:44:58.040Z,918.23
2019-02-16T07:46:29.854Z,918.25
2019-02-16T07:48:01.665Z,918.26
2019-02-16T07:49:33.478Z,918.27
2019-02-16T07:51:05.390Z,918.26
2019-02-16T07:52:37.103Z,918.24
2019-02-16T07:54:08.917Z,918.26
2019-02-16T07:55:40.728Z,918.22
2019-02-16T07:57:12.543Z,918.28
2019-02-16T07:58:44.366Z,918.31
2019-02-16T08:00:16.168Z,918.33
2019-02-16T08:01:48.185Z,918.30
2019-02-16T08:03:19.796Z,918.31
2019-02-16T08:04:51.913Z,918.26
2019-02-16T08:06:23.420Z,918.29
2019-02-16T08:07:55.231Z,918.29
2019-02-16T08:09:27.146Z,918.29
2019-02-16T08:10:58.858Z,918.22
2019-02-16T08:12:30.673Z,918.26
2019-02-16T08:14:02.486Z,918.30
2019-02-16T08:15:34.297Z,918.30
2019-02-16T08:17:06.113Z,918.35
2019-02-16T08:18:37.924Z,918.31
2019-02-16T08:20:09.737Z,918.36
2019-02-16T08:21:41.800Z,918.35
2019-02-16T08:23:13.364Z,918.34
2019-02-16T08:24:45.175Z,918.34
2019-02-16T08:26:17.049Z,918.34
2019-02-16T08:27:48.952Z,918.31
2019-02-16T08:29:20.615Z,918.38
2019-02-16T08:30:52.427Z,918.40
2019-02-16T08:32:24.241Z,918.43
2019-02-16T08:33:56.056Z,918.38
2019-02-16T08:35:27.867Z,918.36
2019-02-16T08:36:59.680Z,918.41
2019-02-16T08:38:31.494Z,918.42
2019-02-16T08:40:03.309Z,918.40
2019-02-16T08:41:35.119Z,918.47
2019-02-16T08:43:06.931Z,918.49
2019-02-16T08:44:38.745Z,918.47
2019-02-16T08:46:10.659Z,918.50
2019-02-16T08:47:42.371Z,918.43
2019-02-16T08:49:14.185Z,918.47
2019-02-16T08:50:45.997Z,918.49
2019-02-16T08:52:17.811Z,918.45
2019-02-16T08:53:50.205Z,918.52
2019-02-16T08:55:21.438Z,918.53
2019-02-16T08:56:53.251Z,918.59
2019-02-16T08:58:25.063Z,918.60
2019-02-16T08:59:56.878Z,918.63
2019-02-16T09:01:28.689Z,918.59
2019-02-16T09:03:00.503Z,918.48
2019-02-16T09:04:32.413Z,918.51
2019-02-16T09:06:04.328Z,918.60
2019-02-16T09:07:35.939Z,918.62
2019-02-16T09:09:07.752Z,918.67
2019-02-16T09:10:39.565Z,918.68
2019-02-16T09:12:11.378Z,918.73
2019-02-16T09:13:43.191Z,918.78
2019-02-16T09:15:15.003Z,918.82
2019-02-16T09:16:46.817Z,918.85
2019-02-16T09:18:18.630Z,918.82
2019-02-16T09:19:50.445Z,918.81
2019-02-16T09:21:22.256Z,918.81
2019-02-16T09:22:54.169Z,918.80
2019-02-16T09:24:25.882Z,918.80
2019-02-16T09:25:57.695Z,918.86
2019-02-16T09:27:29.508Z,918.87
2019-02-16T09:29:01.322Z,918.89
2019-02-16T09:30:33.135Z,918.98
2019-02-16T09:32:04.947Z,919.00
2019-02-16T09:33:36.760Z,918.99
2019-02-16T09:35:08.573Z,919.02
2019-02-16T09:36:40.386Z,919.02
2019-02-16T09:39:44.030Z,919.03
2019-02-16T09:41:15.925Z,919.11
2019-02-16T09:42:47.639Z,919.18
2019-02-16T09:44:19.450Z,919.21
2019-02-16T09:45:51.263Z,919.16
2019-02-16T09:47:23.078Z,919.20
2019-02-16T09:48:54.890Z,919.14
2019-02-16T09:50:28.140Z,919.19
2019-02-16T09:51:58.521Z,919.24
2019-02-16T09:53:30.330Z,919.24
2019-02-16T09:55:02.148Z,919.30
2019-02-16T09:56:33.955Z,919.33
2019-02-16T09:58:05.977Z,919.34
2019-02-16T09:59:37.680Z,919.33
2019-02-16T10:01:09.596Z,919.34
2019-02-16T10:02:41.511Z,919.33
2019-02-16T10:04:13.020Z,919.39
2019-02-16T10:05:44.838Z,919.43
2019-02-16T10:07:16.645Z,919.44
2019-02-16T10:08:48.458Z,919.45
2019-02-16T10:10:20.271Z,919.40
2019-02-16T10:11:52.285Z,919.41
2019-02-16T10:13:24.099Z,919.41
2019-02-16T10:14:55.711Z,919.49
2019-02-16T10:16:27.521Z,919.53
2019-02-16T10:17:59.434Z,919.59
2019-02-16T10:19:31.450Z,919.57
2019-02-16T10:21:02.959Z,919.57
2019-02-16T10:22:34.772Z,919.54
2019-02-16T10:24:06.586Z,919.56
2019-02-16T10:25:38.399Z,919.64
2019-02-16T10:28:42.023Z,919.64
2019-02-16T10:30:13.848Z,919.68
2019-02-16T10:31:45.666Z,919.71
2019-02-16T10:34:49.276Z,919.71
2019-02-16T10:37:53.963Z,919.74
2019-02-16T10:39:24.764Z,919.74
2019-02-16T10:40:56.528Z,919.78
2019-02-16T10:42:28.341Z,919.86
2019-02-16T10:44:01.103Z,919.80
2019-02-16T10:45:31.967Z,919.81
2019-02-16T10:47:04.094Z,919.80
2019-02-16T10:48:35.594Z,919.81
2019-02-16T10:50:07.611Z,919.80
2019-02-16T10:51:39.756Z,919.86
2019-02-16T10:54:42.849Z,919.92
2019-02-16T10:56:14.763Z,919.94
2019-02-16T10:57:46.475Z,919.84
2019-02-16T10:59:18.800Z,919.94
2019-02-16T11:00:50.102Z,919.91
2019-02-16T11:02:21.917Z,919.90
2019-02-16T11:03:55.278Z,919.90
2019-02-16T11:05:26.078Z,919.94
2019-02-16T11:06:57.364Z,919.97
2019-02-16T11:08:29.375Z,919.97
2019-02-16T11:10:00.986Z,920.02
2019-02-16T11:11:32.798Z,920.02
2019-02-16T11:13:04.612Z,920.01
2019-02-16T11:14:36.525Z,920.06
2019-02-16T11:16:08.241Z,920.06
2019-02-16T11:17:40.054Z,920.11
2019-02-16T11:19:11.868Z,920.17
2019-02-16T11:24:12.768Z,920.11
2019-02-16T11:27:13.972Z,919.93
2019-02-16T11:28:45.890Z,920.11
2019-02-16T11:30:17.701Z,920.05
2019-02-16T11:31:49.748Z,920.08
2019-02-16T11:33:21.031Z,920.08
2019-02-16T11:34:52.844Z,920.13
2019-02-16T11:36:24.659Z,919.99
2019-02-16T11:37:57.009Z,920.11
2019-02-16T11:39:28.289Z,920.09
2019-02-16T11:41:00.103Z,920.07
2019-02-16T11:44:03.935Z,920.20
2019-02-16T11:47:07.363Z,920.47
2019-02-16T11:48:39.482Z,920.49
2019-02-16T11:50:11.094Z,920.32
2019-02-16T11:51:42.805Z,920.33
2019-02-16T11:53:15.160Z,920.41
2019-02-16T11:54:46.636Z,920.53
2019-02-16T11:57:50.066Z,920.53
2019-02-16T11:59:21.886Z,920.54
2019-02-16T12:00:53.898Z,920.68
2019-02-16T12:03:57.326Z,920.70
2019-02-16T12:05:29.140Z,920.54
2019-02-16T12:07:00.957Z,920.62
2019-02-16T12:08:32.771Z,920.60
2019-02-16T12:10:04.890Z,920.54
2019-02-16T12:11:36.707Z,920.58
2019-02-16T12:13:08.219Z,920.66
2019-02-16T12:14:40.469Z,920.75
2019-02-16T12:17:43.666Z,920.87
2019-02-16T12:19:15.553Z,921.04
2019-02-16T12:20:47.297Z,920.93
2019-02-16T12:22:19.117Z,920.99
2019-02-16T12:25:23.049Z,921.06
2019-02-16T12:28:26.913Z,921.31
2019-02-16T12:29:58.196Z,921.13
2019-02-16T12:31:30.014Z,921.05
2019-02-16T12:33:01.831Z,921.02
2019-02-16T12:34:33.648Z,921.16
2019-02-16T12:37:37.485Z,921.19
2019-02-16T12:39:09.099Z,921.01
2019-02-16T12:40:40.920Z,920.89
2019-02-16T12:43:44.855Z,921.23
2019-02-16T12:45:16.370Z,921.35
2019-02-16T12:46:48.187Z,921.25
2019-02-16T12:48:20.005Z,921.43
2019-02-16T12:51:23.641Z,921.40
2019-02-16T12:52:55.459Z,921.59
2019-02-16T12:54:27.277Z,921.52
2019-02-16T12:55:59.100Z,921.46
2019-02-16T13:03:38.597Z,921.09
2019-02-16T13:05:10.317Z,920.93
2019-02-16T13:08:13.663Z,920.81
2019-02-16T13:09:46.010Z,920.76
2019-02-16T13:11:17.300Z,920.81
2019-02-16T13:12:49.122Z,920.61
2019-02-16T13:14:21.131Z,920.47
2019-02-16T13:15:52.751Z,920.66
2019-02-16T13:18:56.384Z,920.77
2019-02-16T13:20:28.404Z,921.07
2019-02-16T13:22:00.122Z,920.94
2019-02-16T13:23:31.840Z,921.23
2019-02-16T13:25:03.859Z,921.39
2019-02-16T13:28:07.502Z,920.98
2019-02-16T13:29:39.113Z,920.96
2019-02-16T13:31:10.944Z,920.85
2019-02-16T13:32:42.960Z,920.76
2019-02-16T13:34:14.772Z,920.51
2019-02-16T13:35:46.389Z,920.97
2019-02-16T13:37:18.409Z,921.25
2019-02-16T13:40:22.483Z,921.15
2019-02-16T13:41:53.664Z,921.02
2019-02-16T13:43:25.482Z,921.34
2019-02-16T13:44:57.301Z,921.76
2019-02-16T13:49:32.761Z,921.03
2019-02-16T13:52:37.313Z,920.84
2019-02-16T13:54:08.226Z,921.00
2019-02-16T13:55:40.146Z,921.07
2019-02-16T13:57:12.481Z,921.51
2019-02-16T13:58:43.988Z,921.44
2019-02-16T14:00:15.503Z,921.42
2019-02-16T14:01:47.323Z,921.22
2019-02-16T14:03:19.146Z,921.31
2019-02-16T14:04:51.178Z,920.81
2019-02-16T14:09:26.478Z,921.26
2019-02-16T14:10:58.621Z,921.02
2019-02-16T14:12:30.804Z,920.96
2019-02-16T14:14:02.062Z,921.20
2019-02-16T14:17:05.641Z,921.27
2019-02-16T14:21:41.226Z,921.22
2019-02-16T14:23:12.926Z,921.34
2019-02-16T14:24:44.919Z,921.36
2019-02-16T14:29:20.459Z,921.26
2019-02-16T14:30:51.972Z,921.11
2019-02-16T14:32:24.256Z,921.13
2019-02-16T14:33:57.177Z,921.15
2019-02-16T14:35:27.641Z,921.31
2019-02-16T14:36:59.523Z,921.46
2019-02-16T14:38:31.111Z,921.62
2019-02-16T14:40:03.030Z,921.42
2019-02-16T14:41:34.687Z,921.45
2019-02-16T14:43:06.872Z,921.56
2019-02-16T14:44:39.744Z,921.56
2019-02-16T14:46:10.529Z,921.65
2019-02-16T14:47:42.172Z,921.83
2019-02-16T14:49:14.099Z,921.65
2019-02-16T14:50:45.895Z,921.49
2019-02-16T14:52:17.452Z,921.37
2019-02-16T14:53:49.537Z,921.31
2019-02-16T14:55:22.081Z,921.48
2019-02-16T14:56:53.043Z,921.49
2019-02-16T14:58:24.840Z,921.38
2019-02-16T14:59:56.592Z,921.42
2019-02-16T15:01:28.552Z,921.35
2019-02-16T15:03:00.314Z,921.49
2019-02-16T15:04:32.054Z,921.46
2019-02-16T15:06:03.866Z,921.25
2019-02-16T15:07:35.980Z,921.19
2019-02-16T15:09:07.753Z,921.26
2019-02-16T15:10:40.865Z,921.54
2019-02-16T15:12:11.525Z,921.41
2019-02-16T15:15:15.189Z,921.33
2019-02-16T15:16:46.667Z,921.34
2019-02-16T15:18:18.634Z,921.25
2019-02-16T15:19:50.262Z,921.31
2019-02-16T15:21:22.286Z,921.37
2019-02-16T15:22:53.909Z,921.41
2019-02-16T15:24:25.935Z,921.39
2019-02-16T15:26:01.051Z,921.22
2019-02-16T15:27:29.916Z,921.34
2019-02-16T15:30:33.228Z,921.21
2019-02-16T15:32:05.052Z,921.24
2019-02-16T15:33:36.733Z,921.16
2019-02-16T15:35:08.560Z,921.33
2019-02-16T15:36:40.335Z,921.32
2019-02-16T15:39:43.969Z,921.28
2019-02-16T15:42:47.609Z,921.32
2019-02-16T15:44:19.634Z,921.32
2019-02-16T15:45:51.366Z,921.35
2019-02-16T15:47:23.281Z,921.11
2019-02-16T15:50:26.827Z,921.13
2019-02-16T15:51:58.691Z,921.00
2019-02-16T15:53:30.375Z,921.12
2019-02-16T15:55:02.238Z,921.11
2019-02-16T15:56:34.223Z,920.84
2019-02-16T15:58:05.898Z,920.62
2019-02-16T15:59:38.200Z,920.74
2019-02-16T16:01:10.645Z,920.73
2019-02-16T16:02:41.340Z,920.64
2019-02-16T16:04:13.407Z,920.48
2019-02-16T16:05:44.963Z,920.49
2019-02-16T16:08:48.952Z,920.71
2019-02-16T16:10:21.104Z,920.66
2019-02-16T16:11:52.427Z,920.51
2019-02-16T16:13:24.334Z,920.46
2019-02-16T16:14:56.367Z,920.50
2019-02-16T16:16:28.139Z,920.51
2019-02-16T16:17:59.944Z,920.66
2019-02-16T16:19:31.655Z,920.54
2019-02-16T16:21:03.535Z,920.55
2019-02-16T16:22:35.043Z,920.29
2019-02-16T16:24:07.097Z,920.53
2019-02-16T16:25:39.051Z,920.52
2019-02-16T16:27:11.796Z,920.57
2019-02-16T16:28:42.790Z,920.48
2019-02-16T16:30:15.686Z,920.62
2019-02-16T16:31:46.170Z,920.53
2019-02-16T16:33:18.325Z,920.42
2019-02-16T16:34:50.119Z,920.25
2019-02-16T16:36:21.473Z,920.40
2019-02-16T16:37:53.257Z,920.59
2019-02-16T16:39:25.206Z,920.64
2019-02-16T16:40:56.977Z,920.37
2019-02-16T16:42:29.185Z,920.37
2019-02-16T16:45:32.487Z,920.42
2019-02-16T16:47:04.242Z,920.42
2019-02-16T16:48:36.121Z,920.35
2019-02-16T16:50:07.962Z,920.31
2019-02-16T16:53:11.781Z,920.14
2019-02-16T16:54:43.895Z,920.36
2019-02-16T16:56:15.653Z,920.32
2019-02-16T16:57:47.407Z,920.21
2019-02-16T16:59:19.600Z,920.18
2019-02-16T17:00:50.840Z,920.12
2019-02-16T17:02:22.617Z,920.19
2019-02-16T17:03:54.557Z,920.20
2019-02-16T17:05:26.513Z,920.24
2019-02-16T17:06:58.590Z,920.25
2019-02-16T17:08:30.011Z,920.34
2019-02-16T17:10:01.681Z,920.14
2019-02-16T17:11:33.706Z,919.96
2019-02-16T17:13:05.419Z,919.97
2019-02-16T17:14:37.078Z,919.88
2019-02-16T17:16:09.369Z,920.08
2019-02-16T17:17:41.425Z,920.10
2019-02-16T17:19:13.594Z,920.10
2019-02-16T17:20:44.521Z,920.01
2019-02-16T17:22:16.369Z,919.98
2019-02-16T17:23:48.437Z,919.89
2019-02-16T17:25:20.564Z,919.87
2019-02-16T17:26:53.243Z,919.96
2019-02-16T17:28:23.608Z,919.97
2019-02-16T17:29:55.268Z,919.95
2019-02-16T17:31:27.057Z,919.97
2019-02-16T17:32:59.073Z,919.89
2019-02-16T17:34:30.993Z,919.74
2019-02-16T17:36:02.745Z,919.75
2019-02-16T17:37:34.609Z,919.80
2019-02-16T17:39:06.649Z,919.98
2019-02-16T17:40:38.004Z,919.96
2019-02-16T17:42:10.217Z,920.01
2019-02-16T17:43:42.281Z,919.85
2019-02-16T17:45:13.966Z,919.53
2019-02-16T17:46:47.842Z,919.86
2019-02-16T17:48:18.494Z,919.90
2019-02-16T17:49:49.509Z,919.71
2019-02-16T17:51:21.359Z,919.60
2019-02-16T17:52:52.632Z,919.75
2019-02-16T17:54:24.435Z,919.63
2019-02-16T17:55:56.537Z,919.76
2019-02-16T17:57:28.147Z,919.56
2019-02-16T17:58:59.880Z,919.37
2019-02-16T18:00:32.194Z,919.15
2019-02-16T18:02:03.842Z,919.03
2019-02-16T18:03:35.402Z,918.96
2019-02-16T18:05:07.243Z,918.93
2019-02-16T18:08:11.322Z,919.10
2019-02-16T18:09:43.028Z,919.03
2019-02-16T18:11:14.979Z,919.15
2019-02-16T18:12:46.600Z,919.26
2019-02-16T18:14:18.226Z,918.93
2019-02-16T18:15:50.299Z,918.83
2019-02-16T18:17:21.770Z,918.74
2019-02-16T18:18:53.580Z,918.71
2019-02-16T18:20:25.704Z,918.75
2019-02-16T18:25:00.862Z,918.79
2019-02-16T18:26:32.749Z,918.93
2019-02-16T18:28:04.572Z,918.96
2019-02-16T18:29:36.648Z,919.06
2019-02-16T18:31:08.185Z,918.85
2019-02-16T18:32:40.107Z,918.92
2019-02-16T18:34:12.137Z,918.78
2019-02-16T18:35:43.754Z,918.78
2019-02-16T18:37:15.487Z,918.73
2019-02-16T18:38:47.426Z,918.69
2019-02-16T18:40:19.463Z,918.66
2019-02-16T18:41:51.987Z,918.70
2019-02-16T18:43:23.482Z,918.80
2019-02-16T18:44:54.522Z,918.81
2019-02-16T18:46:26.518Z,918.85
2019-02-16T18:47:58.128Z,918.77
2019-02-16T18:49:30.490Z,918.77
2019-02-16T18:52:34.256Z,918.74
2019-02-16T18:54:07.193Z,918.78
2019-02-16T18:55:37.328Z,918.67
2019-02-16T18:57:09.046Z,918.67
2019-02-16T18:58:41.264Z,918.70
2019-02-16T19:00:12.665Z,918.70
2019-02-16T19:01:44.695Z,918.73
2019-02-16T19:03:16.471Z,918.69
2019-02-16T19:04:48.413Z,918.70
2019-02-16T19:06:19.942Z,918.70
2019-02-16T19:09:23.633Z,918.75
2019-02-16T19:10:55.875Z,918.71
2019-02-16T19:12:27.258Z,918.74
2019-02-16T19:14:00.005Z,918.76
2019-02-16T19:15:31.518Z,918.85
2019-02-16T19:17:03.600Z,918.84
2019-02-16T19:18:35.235Z,918.87
2019-02-16T19:20:06.257Z,918.95
2019-02-16T19:21:38.105Z,918.92
2019-02-16T19:23:10.156Z,918.88
2019-02-16T19:24:41.704Z,918.91
2019-02-16T19:26:13.655Z,918.89
2019-02-16T19:27:45.653Z,918.86
2019-02-16T19:29:17.214Z,918.85
2019-02-16T19:30:49.440Z,918.84
2019-02-16T19:32:21.110Z,918.83
2019-02-16T19:33:52.599Z,918.87
2019-02-16T19:35:24.573Z,918.89
2019-02-16T19:36:56.284Z,918.91
2019-02-16T19:38:28.044Z,918.87
2019-02-16T19:41:32.002Z,918.84
2019-02-16T19:43:03.809Z,918.81
2019-02-16T19:46:07.636Z,918.89
2019-02-16T19:47:39.008Z,918.87
2019-02-16T19:49:11.290Z,918.91
2019-02-16T19:50:42.641Z,918.89
2019-02-16T19:52:15.120Z,918.87
2019-02-16T19:53:46.434Z,918.94
2019-02-16T19:55:18.026Z,918.94
2019-02-16T19:56:49.827Z,919.03
2019-02-16T19:58:21.968Z,919.01
2019-02-16T19:59:53.461Z,919.06
2019-02-16T20:01:25.550Z,919.05
2019-02-16T20:02:57.369Z,919.09
2019-02-16T20:06:00.735Z,919.15
2019-02-16T20:07:33.173Z,919.10
2019-02-16T20:09:04.886Z,919.05
2019-02-16T20:12:08.142Z,918.97
2019-02-16T20:13:39.801Z,918.96
2019-02-16T20:15:11.619Z,918.96
2019-02-16T20:16:43.540Z,918.88
2019-02-16T20:19:47.072Z,918.94
2019-02-16T20:21:19.083Z,919.02
2019-02-16T20:22:50.753Z,919.06
2019-02-16T20:24:22.524Z,919.08
2019-02-16T20:27:26.411Z,919.14
2019-02-16T20:28:57.993Z,919.09
2019-02-16T20:32:01.591Z,919.06
2019-02-16T20:33:33.610Z,919.10
2019-02-16T20:35:05.255Z,919.07
2019-02-16T20:36:37.317Z,919.08
2019-02-16T20:38:09.203Z,919.15